Time;durP1;ratioP1;P1;durP2;ratioP2;P2;SDS_P1;SDS_P2;PMS_P1;PMS_P2;Temp;Humidity;BMP_temperature;BMP_pressure;BME280_temperature;BME280_humidity;BME280_pressure;Samples;Min_cycle;Max_cycle;Signal;HPM_P1;HPM_P2
2022/03/19 00:00:42;;;;;;;;;;;;;;;4.59;66.89;103301.19;5010015;28;20075;-63
2022/03/19 00:03:45;;;;;;;7.70;2.55;;;;;;;4.39;67.81;103302.56;5010181;28;20339;-64
2022/03/19 00:06:48;;;;;;;6.50;2.13;;;;;;;4.45;67.54;103304.41;5009697;28;20048;-63
2022/03/19 00:09:52;;;;;;;8.27;2.53;;;;;;;4.31;67.87;103294.66;5010776;28;20057;-64
2022/03/19 00:12:55;;;;;;;8.40;2.63;;;;;;;4.42;67.60;103305.22;5010453;28;20084;-64
2022/03/19 00:15:59;;;;;;;;;;;;;;;4.26;67.93;103301.47;5010659;28;20424;-64
2022/03/19 00:19:02;;;;;;;6.13;2.42;;;;;;;4.19;68.30;103310.84;5009542;28;19940;-64
2022/03/19 00:22:06;;;;;;;7.85;2.10;;;;;;;4.16;68.18;103304.75;5009635;28;20076;-64
2022/03/19 00:25:11;;;;;;;7.50;3.00;;;;;;;4.20;67.93;103304.81;5010065;28;20088;-64
2022/03/19 00:28:18;;;;;;;7.03;3.20;;;;;;;4.23;67.74;103298.81;5009794;28;20519;-64
2022/03/19 00:31:22;;;;;;;5.22;2.63;;;;;;;4.02;69.08;103306.16;4997618;28;20131;-63
2022/03/19 00:34:25;;;;;;;6.15;2.60;;;;;;;4.06;68.96;103308.00;5010025;28;20100;-64
2022/03/19 00:37:30;;;;;;;8.18;2.53;;;;;;;4.11;68.63;103301.19;5009689;28;20100;-64
2022/03/19 00:40:35;;;;;;;6.72;2.88;;;;;;;4.02;68.18;103306.16;5008892;28;20044;-64
2022/03/19 00:43:38;;;;;;;8.70;3.00;;;;;;;3.93;68.34;103302.59;5008868;28;20052;-65
2022/03/19 00:46:41;;;;;;;6.90;2.95;;;;;;;4.05;68.07;103306.22;5009110;28;20526;-65
2022/03/19 00:49:44;;;;;;;7.93;2.55;;;;;;;3.96;68.14;103302.63;5009284;28;20107;-64
2022/03/19 00:52:48;;;;;;;8.77;3.17;;;;;;;4.07;67.91;103301.97;4990327;28;20358;-64
2022/03/19 00:55:51;;;;;;;;;;;;;;;4.04;68.14;103295.00;4990195;28;20129;-64
2022/03/19 00:58:55;;;;;;;5.38;2.45;;;;;;;3.91;67.88;103298.22;4982587;28;19971;-64
2022/03/19 01:01:58;;;;;;;5.85;2.42;;;;;;;3.91;68.22;103299.06;4989651;28;20094;-64
2022/03/19 01:05:01;;;;;;;;;;;;;;;3.70;68.76;103302.13;4989897;28;20052;-64
2022/03/19 01:08:04;;;;;;;6.70;2.78;;;;;;;3.63;69.69;103296.75;4988966;28;19917;-64
2022/03/19 01:11:08;;;;;;;7.40;3.00;;;;;;;3.53;69.69;103294.84;4989549;28;20077;-64
2022/03/19 01:14:11;;;;;;;9.80;2.88;;;;;;;3.64;69.85;103296.81;4988781;28;20048;-64
2022/03/19 01:17:14;;;;;;;;;;;;;;;3.61;69.99;103289.00;4989466;28;20130;-64
2022/03/19 01:20:18;;;;;;;7.97;2.80;;;;;;;3.49;69.69;103289.59;4989340;28;20012;-64
2022/03/19 01:23:21;;;;;;;9.02;3.03;;;;;;;3.44;70.14;103288.59;4989125;28;20150;-66
2022/03/19 01:26:24;;;;;;;;;;;;;;;3.39;70.43;103292.81;4989422;28;20093;-64
2022/03/19 01:29:28;;;;;;;10.15;3.45;;;;;;;3.52;69.75;103287.94;4989503;28;19964;-64
2022/03/19 01:32:33;;;;;;;7.57;3.42;;;;;;;3.43;69.43;103286.88;4989234;28;20097;-64
2022/03/19 01:35:36;;;;;;;11.00;3.58;;;;;;;3.44;69.88;103285.16;4988502;28;20045;-64
2022/03/19 01:38:40;;;;;;;6.47;2.90;;;;;;;3.37;70.13;103284.16;4988833;28;20093;-65
2022/03/19 01:41:44;;;;;;;;;;;;;;;3.25;70.04;103279.59;4988719;28;20086;-64
2022/03/19 01:44:47;;;;;;;;;;;;;;;3.20;70.45;103285.50;4989623;28;20000;-64
2022/03/19 01:47:51;;;;;;;12.10;3.97;;;;;;;3.07;71.03;103279.19;4989454;28;19920;-64
2022/03/19 01:50:54;;;;;;;6.85;3.17;;;;;;;2.98;71.48;103279.84;4988856;28;20064;-64
2022/03/19 01:53:57;;;;;;;7.95;4.03;;;;;;;3.03;71.47;103279.94;4988726;28;20054;-64
2022/03/19 01:57:02;;;;;;;6.75;2.88;;;;;;;3.05;71.37;103272.22;4988777;28;20065;-64
2022/03/19 02:00:07;;;;;;;8.82;2.90;;;;;;;2.85;72.27;103280.38;4976387;28;20045;-64
2022/03/19 02:03:16;;;;;;;9.07;3.38;;;;;;;2.89;71.95;103265.81;4988779;28;20085;-64
2022/03/19 02:06:24;;;;;;;10.23;3.40;;;;;;;2.87;72.04;103259.75;4989114;28;20524;-64
2022/03/19 02:09:29;;;;;;;6.68;3.38;;;;;;;2.76;72.32;103262.06;4992222;28;20041;-64
2022/03/19 02:12:33;;;;;;;7.40;2.88;;;;;;;2.73;72.46;103262.00;4992023;28;20052;-64
2022/03/19 02:15:36;;;;;;;;;;;;;;;2.61;73.18;103253.94;4991878;28;20109;-64
2022/03/19 02:18:39;;;;;;;8.98;3.20;;;;;;;2.71;72.89;103255.91;4992488;28;19973;-64
2022/03/19 02:21:45;;;;;;;7.97;3.50;;;;;;;2.77;72.41;103248.31;4992047;28;20119;-64
2022/03/19 02:28:10;;;;;;;6.70;3.40;;;;;;;2.40;73.47;103242.25;4992793;28;20416;-64
2022/03/19 02:31:14;;;;;;;6.63;3.13;;;;;;;2.48;72.86;103245.91;4644661;28;10000496;-64
2022/03/19 02:34:20;;;;;;;10.55;3.47;;;;;;;2.31;73.54;103226.53;4988810;28;20057;-64
2022/03/19 02:37:23;;;;;;;8.32;3.20;;;;;;;2.18;74.05;103237.38;4988058;28;20077;-64
2022/03/19 02:40:27;;;;;;;7.07;2.90;;;;;;;2.16;74.49;103236.47;4988669;28;20578;-64
2022/03/19 02:43:30;;;;;;;;;;;;;;;2.22;74.14;103236.63;4988797;28;20054;-63
2022/03/19 02:46:43;;;;;;;9.13;3.28;;;;;;;2.35;73.49;103238.69;4989320;28;20311;-64
2022/03/19 02:49:47;;;;;;;8.52;3.92;;;;;;;2.32;73.39;103236.03;4988951;28;20103;-64
2022/03/19 02:52:51;;;;;;;5.90;3.25;;;;;;;2.23;73.40;103231.50;5007778;28;20069;-64
2022/03/19 02:55:54;;;;;;;8.63;3.22;;;;;;;2.12;73.86;103229.47;5007883;28;20107;-63
2022/03/19 02:58:58;;;;;;;13.82;3.65;;;;;;;2.07;74.15;103230.25;5008311;28;20106;-64
2022/03/19 03:02:05;;;;;;;11.73;3.30;;;;;;;2.12;73.50;103222.63;5007853;28;20049;-64
2022/03/19 03:05:11;;;;;;;6.75;3.03;;;;;;;2.20;73.55;103217.63;5007703;28;20100;-64
2022/03/19 03:08:15;;;;;;;7.25;3.20;;;;;;;1.99;74.09;103231.75;5006901;28;20048;-63
2022/03/19 03:11:18;;;;;;;10.68;4.60;;;;;;;1.96;74.61;103225.63;5007884;28;20139;-64
2022/03/19 03:14:22;;;;;;;6.65;2.63;;;;;;;2.04;74.58;103224.09;5008281;28;20457;-64
2022/03/19 03:17:27;;;;;;;7.35;3.28;;;;;;;1.97;74.21;103228.22;5007789;28;20088;-64
2022/03/19 03:20:31;;;;;;;10.15;3.67;;;;;;;1.91;74.15;103224.63;5006757;28;20112;-64
2022/03/19 03:23:34;;;;;;;6.05;2.88;;;;;;;1.83;74.61;103221.84;5007600;28;20048;-64
2022/03/19 03:26:38;;;;;;;9.77;4.03;;;;;;;2.04;74.09;103217.25;5007916;28;20119;-64
2022/03/19 03:29:42;;;;;;;6.47;3.00;;;;;;;2.08;73.70;103221.66;5007827;28;20080;-63
2022/03/19 03:32:45;;;;;;;7.47;3.45;;;;;;;1.99;73.97;103218.84;5007646;28;20550;-64
2022/03/19 03:35:49;;;;;;;10.93;3.53;;;;;;;1.94;74.04;103214.38;5007491;28;20048;-64
2022/03/19 03:38:52;;;;;;;10.27;3.90;;;;;;;1.77;74.49;103208.78;5007479;28;20494;-64
2022/03/19 03:41:56;;;;;;;7.50;3.30;;;;;;;1.72;75.18;103215.50;5007518;28;20052;-64
2022/03/19 03:44:59;;;;;;;6.13;2.72;;;;;;;1.88;74.52;103215.09;5007718;28;20111;-63
2022/03/19 03:48:02;;;;;;;10.20;3.17;;;;;;;1.89;74.15;103211.69;5007234;28;20096;-64
2022/03/19 03:51:07;;;;;;;8.45;3.00;;;;;;;1.79;74.69;103201.97;5006629;28;20052;-64
2022/03/19 03:54:10;;;;;;;10.75;4.25;;;;;;;1.62;74.64;103202.34;5006723;28;20128;-64
2022/03/19 03:57:13;;;;;;;8.50;3.75;;;;;;;1.59;75.33;103197.09;4994834;28;20053;-64
2022/03/19 04:00:17;;;;;;;;;;;;;;;1.50;75.45;103202.03;5007318;28;20475;-64
2022/03/19 04:03:20;;;;;;;7.00;3.50;;;;;;;1.61;75.20;103200.63;5004720;28;20011;-63
2022/03/19 04:06:23;;;;;;;7.47;3.20;;;;;;;1.62;75.07;103191.16;5005794;28;20495;-64
2022/03/19 04:09:26;;;;;;;6.75;2.90;;;;;;;1.60;74.77;103192.84;5006834;28;20057;-64
2022/03/19 04:12:30;;;;;;;6.93;2.92;;;;;;;1.81;74.13;103184.81;5006371;28;20056;-64
2022/03/19 04:15:33;;;;;;;;;;;;;;;1.69;73.92;103187.03;5006529;28;20044;-63
2022/03/19 04:18:37;;;;;;;9.23;3.45;;;;;;;1.70;74.12;103189.69;5005037;28;19924;-63
2022/03/19 04:21:40;;;;;;;7.25;3.53;;;;;;;1.57;74.54;103192.75;5005326;28;20121;-64
2022/03/19 04:24:44;;;;;;;8.32;3.60;;;;;;;1.60;74.80;103188.56;5004880;28;20048;-64
2022/03/19 04:27:49;;;;;;;;;;;;;;;1.55;74.76;103187.53;5007077;28;20461;-64
2022/03/19 04:30:52;;;;;;;7.88;3.15;;;;;;;1.51;74.60;103184.84;5005278;28;19972;-64
2022/03/19 04:33:55;;;;;;;6.78;2.85;;;;;;;1.43;74.91;103183.75;4986600;28;20049;-64
2022/03/19 04:36:58;;;;;;;7.97;2.92;;;;;;;1.54;74.80;103190.97;4973899;28;20105;-63
2022/03/19 04:40:02;;;;;;;5.13;2.80;;;;;;;1.51;74.46;103182.28;4986026;28;20061;-64
2022/03/19 04:43:07;;;;;;;8.60;2.83;;;;;;;1.50;74.22;103185.66;4985579;28;20416;-64
2022/03/19 04:46:10;;;;;;;7.18;3.13;;;;;;;1.47;74.86;103186.47;4990280;28;20519;-63
2022/03/19 04:49:13;;;;;;;8.27;3.47;;;;;;;1.55;74.51;103184.09;5007316;28;20044;-64
2022/03/19 04:52:18;;;;;;;6.85;3.53;;;;;;;1.54;74.45;103184.94;4660075;28;10001419;-64
2022/03/19 04:55:22;;;;;;;7.93;3.03;;;;;;;1.50;74.55;103186.56;5006996;28;20604;-64
2022/03/19 04:58:32;;;;;;;8.85;3.15;;;;;;;1.46;74.70;103189.00;5006593;28;20116;-63
2022/03/19 05:01:36;;;;;;;7.70;2.75;;;;;;;1.36;74.98;103182.72;4996047;28;20096;-63
2022/03/19 05:04:39;;;;;;;8.05;3.13;;;;;;;1.50;74.53;103183.09;5008584;28;20103;-64
2022/03/19 05:07:47;;;;;;;6.82;2.80;;;;;;;1.32;75.04;103186.03;5009413;28;20048;-64
2022/03/19 05:14:35;;;;;;;8.43;2.88;;;;;;;1.08;76.59;103192.22;5009617;28;20045;-64
2022/03/19 05:17:40;;;;;;;6.07;2.58;;;;;;;1.24;75.63;103197.81;4995937;28;20040;-66
2022/03/19 05:20:43;;;;;;;6.53;3.03;;;;;;;1.28;75.08;103200.53;5008540;28;20439;-64
2022/03/19 05:23:47;;;;;;;11.45;3.67;;;;;;;1.29;74.65;103189.41;5008557;28;20573;-63
2022/03/19 05:26:50;;;;;;;9.30;3.30;;;;;;;1.33;74.25;103193.81;5007612;28;20320;-64
2022/03/19 05:29:54;;;;;;;7.07;2.80;;;;;;;1.37;74.29;103197.34;5006831;28;20052;-64
2022/03/19 05:32:58;;;;;;;7.85;2.88;;;;;;;1.23;74.91;103196.09;5007619;28;20508;-63
2022/03/19 05:36:02;;;;;;;10.15;4.85;;;;;;;1.16;75.22;103192.44;5007013;28;20096;-63
2022/03/19 05:39:05;;;;;;;10.20;3.35;;;;;;;1.10;75.42;103188.00;5008897;28;20465;-64
2022/03/19 05:42:09;;;;;;;8.30;3.35;;;;;;;1.24;75.36;103192.66;5008083;28;20761;-63
2022/03/19 05:45:15;;;;;;;7.43;3.08;;;;;;;1.11;75.02;103202.59;5007457;28;20045;-64
2022/03/19 05:48:19;;;;;;;9.50;3.05;;;;;;;1.30;74.91;103195.41;5008331;28;20052;-64
2022/03/19 05:51:22;;;;;;;27.08;16.85;;;;;;;1.05;75.47;103206.69;5007942;28;20067;-64
2022/03/19 05:54:26;;;;;;;19.52;12.45;;;;;;;1.12;75.60;103193.19;4995757;28;20103;-64
2022/03/19 05:57:29;;;;;;;13.00;7.80;;;;;;;1.01;75.55;103194.56;5008106;28;20104;-64
2022/03/19 06:00:32;;;;;;;;;;;;;;;1.04;76.08;103195.53;5009437;28;20126;-64
2022/03/19 06:03:36;;;;;;;34.67;18.98;;;;;;;1.24;75.18;103197.81;5008800;28;19975;-64
2022/03/19 06:06:39;;;;;;;20.05;10.45;;;;;;;1.24;75.21;103192.66;5008083;28;20514;-64
2022/03/19 06:09:42;;;;;;;9.65;4.43;;;;;;;1.13;75.54;103187.22;5008365;28;20107;-64
2022/03/19 06:12:46;;;;;;;8.13;3.15;;;;;;;1.03;76.04;103196.38;5007377;28;20041;-64
2022/03/19 06:15:50;;;;;;;8.70;3.33;;;;;;;1.10;76.04;103195.72;5008864;28;20514;-64
2022/03/19 06:18:53;;;;;;;7.68;3.35;;;;;;;1.07;76.51;103193.03;5006362;28;20044;-64
2022/03/19 06:21:56;;;;;;;7.82;2.50;;;;;;;1.13;76.54;103192.34;5008454;28;20121;-64
2022/03/19 06:25:01;;;;;;;7.07;3.80;;;;;;;1.25;76.01;103189.28;5008180;28;20068;-64
2022/03/19 06:28:05;;;;;;;10.80;6.05;;;;;;;1.30;76.02;103196.28;5007346;28;20126;-64
2022/03/19 06:31:08;;;;;;;12.52;6.10;;;;;;;1.24;76.03;103188.38;5007874;28;20459;-64
2022/03/19 06:34:11;;;;;;;10.70;4.10;;;;;;;1.20;76.40;103183.09;5008649;28;20056;-64
2022/03/19 06:37:21;;;;;;;9.25;3.67;;;;;;;1.23;76.24;103188.34;5008704;28;20049;-64
2022/03/19 06:40:25;;;;;;;8.05;4.63;;;;;;;1.23;76.54;103186.63;5008174;28;20056;-64
2022/03/19 06:43:29;;;;;;;9.73;4.22;;;;;;;1.31;76.30;103186.88;5008660;28;20041;-65
2022/03/19 06:46:32;;;;;;;8.57;4.32;;;;;;;1.44;76.00;103186.41;5006903;28;20044;-64
2022/03/19 06:49:35;;;;;;;9.32;4.47;;;;;;;1.52;75.88;103184.88;5007155;28;20119;-64
2022/03/19 06:52:39;;;;;;;8.65;4.10;;;;;;;1.59;75.70;103185.91;5008229;28;20531;-64
2022/03/19 06:55:42;;;;;;;;;;;;;;;1.55;76.13;103184.97;5011056;28;20516;-64
2022/03/19 06:58:46;;;;;;;8.90;4.03;;;;;;;1.67;75.90;103187.03;5011555;28;20650;-64
2022/03/19 07:01:49;;;;;;;8.27;4.13;;;;;;;1.79;76.05;103183.91;5011651;28;20515;-64
2022/03/19 07:04:53;;;;;;;8.13;3.38;;;;;;;1.96;75.48;103187.78;5010563;28;20528;-64
2022/03/19 07:07:59;;;;;;;9.23;3.25;;;;;;;1.95;75.69;103185.19;5009431;28;20117;-64
2022/03/19 07:11:04;;;;;;;7.00;3.38;;;;;;;2.00;75.82;103187.03;5008640;28;20096;-64
2022/03/19 07:14:07;;;;;;;6.88;3.90;;;;;;;2.16;75.83;103192.59;5009953;28;20049;-65
2022/03/19 07:17:10;;;;;;;7.00;4.05;;;;;;;2.25;75.01;103193.69;5010116;28;20056;-64
2022/03/19 07:20:14;;;;;;;;;;;;;;;2.28;75.49;103198.94;5010796;28;20116;-64
2022/03/19 07:23:17;;;;;;;8.45;5.47;;;;;;;2.43;75.13;103190.69;5009734;28;20426;-64
2022/03/19 07:26:21;;;;;;;8.45;4.88;;;;;;;2.57;74.96;103191.00;5009247;28;20538;-64
2022/03/19 07:29:24;;;;;;;10.70;5.57;;;;;;;2.66;75.03;103183.47;5008985;28;20574;-64
2022/03/19 07:32:28;;;;;;;10.32;4.82;;;;;;;2.76;75.54;103184.56;5009448;28;20088;-64
2022/03/19 07:35:32;;;;;;;7.80;4.40;;;;;;;2.86;74.87;103180.47;5010542;28;20060;-64
2022/03/19 07:38:35;;;;;;;9.32;5.60;;;;;;;2.96;75.12;103183.28;5010428;28;20440;-64
2022/03/19 07:41:48;;;;;;;20.40;6.13;;;;;;;3.16;74.42;103182.84;5009377;28;20052;-64
2022/03/19 07:44:52;;;;;;;10.23;6.05;;;;;;;3.23;75.59;103171.81;5010158;28;20101;-64
2022/03/19 07:47:55;;;;;;;10.63;5.38;;;;;;;3.37;75.68;103170.34;5009870;28;20386;-64
2022/03/19 07:50:58;;;;;;;14.23;5.57;;;;;;;3.55;75.30;103163.81;5008228;28;20082;-65
2022/03/19 07:54:02;;;;;;;12.00;6.82;;;;;;;3.76;74.63;103169.38;5008573;28;20067;-64
2022/03/19 07:57:07;;;;;;;13.57;8.20;;;;;;;3.94;74.37;103161.94;5008851;28;20415;-64
2022/03/19 08:00:12;;;;;;;18.58;8.70;;;;;;;4.10;74.34;103164.78;5009584;28;20103;-64
2022/03/19 08:03:19;;;;;;;15.48;7.25;;;;;;;4.30;73.31;103165.97;5009087;28;20057;-64
2022/03/19 08:06:22;;;;;;;16.65;7.63;;;;;;;4.51;73.14;103172.38;4992990;28;20088;-64
2022/03/19 08:09:26;;;;;;;12.98;7.00;;;;;;;4.68;72.18;103165.69;5010191;28;20135;-64
2022/03/19 08:12:29;;;;;;;14.05;7.32;;;;;;;4.87;72.49;103162.50;5009471;28;20076;-64
2022/03/19 08:15:34;;;;;;;13.02;6.18;;;;;;;5.19;70.37;103149.09;5009447;28;20180;-65
2022/03/19 08:18:37;;;;;;;13.50;6.15;;;;;;;5.29;71.10;103150.94;5008554;28;20095;-65
2022/03/19 08:21:43;;;;;;;13.50;6.00;;;;;;;5.41;70.10;103144.16;5007768;28;20045;-65
2022/03/19 08:25:37;;;;;;;12.48;6.10;;;;;;;5.59;69.08;103131.38;5009741;28;20181;-65
2022/03/19 08:28:41;;;;;;;14.15;5.82;;;;;;;5.68;68.71;103128.88;5008291;28;20179;-65
2022/03/19 08:31:44;;;;;;;;;;;;;;;5.77;68.27;103122.88;5008084;28;20076;-65
2022/03/19 08:34:48;;;;;;;14.77;7.13;;;;;;;5.79;68.05;103121.19;5007843;28;19924;-64
2022/03/19 08:40:15;;;;;;;16.13;6.95;;;;;;;5.96;68.12;103123.97;5008117;28;20602;-65
2022/03/19 08:41:15;;;;;;;13.85;6.35;;;;;;;6.06;67.29;103110.19;5007054;28;20088;-65
2022/03/19 08:44:18;;;;;;;12.43;5.80;;;;;;;6.15;66.45;103115.44;4995749;28;20459;-65
2022/03/19 08:47:22;;;;;;;;;;;;;;;6.21;66.78;103106.84;5008913;28;20088;-65
2022/03/19 08:50:27;;;;;;;12.80;6.25;;;;;;;6.32;67.12;103107.81;5007830;28;19929;-65
2022/03/19 08:53:30;;;;;;;12.20;5.90;;;;;;;6.58;64.97;103105.34;4995473;28;20476;-64
2022/03/19 08:56:35;;;;;;;16.38;6.00;;;;;;;6.75;64.16;103088.09;5007885;28;20048;-65
2022/03/19 08:59:38;;;;;;;11.70;6.10;;;;;;;6.81;64.44;103096.81;5007561;28;20115;-65
2022/03/19 09:02:42;;;;;;;11.93;6.65;;;;;;;6.95;64.20;103092.50;5008510;28;20065;-65
2022/03/19 09:05:45;;;;;;;12.05;7.05;;;;;;;6.89;63.19;103090.78;5009238;28;20044;-65
2022/03/19 09:08:49;;;;;;;12.25;5.75;;;;;;;7.10;62.17;103089.09;5009409;28;20057;-65
2022/03/19 09:11:52;;;;;;;12.73;6.15;;;;;;;7.24;62.09;103087.41;5008427;28;20127;-64
2022/03/19 09:14:55;;;;;;;14.55;6.82;;;;;;;7.23;61.30;103070.94;5008252;28;20045;-65
2022/03/19 09:17:59;;;;;;;13.05;5.55;;;;;;;7.35;62.87;103071.84;5007733;28;20466;-65
2022/03/19 09:21:03;;;;;;;10.45;5.13;;;;;;;7.49;61.01;103066.63;5008924;28;20057;-66
2022/03/19 09:24:07;;;;;;;11.20;5.20;;;;;;;7.58;60.37;103067.50;5009031;28;20041;-70
2022/03/19 09:27:10;;;;;;;;;;;;;;;7.65;59.98;103064.03;5009934;28;20141;-65
2022/03/19 09:30:13;;;;;;;14.13;5.65;;;;;;;7.61;61.01;103051.91;5008961;28;19920;-65
2022/03/19 09:33:18;;;;;;;11.45;4.95;;;;;;;7.80;58.86;103054.50;5008821;28;20530;-65
2022/03/19 09:36:21;;;;;;;14.27;6.28;;;;;;;7.84;59.00;103048.41;5008395;28;20132;-65
2022/03/19 09:39:24;;;;;;;10.57;5.13;;;;;;;7.98;58.70;103030.19;5009303;28;20092;-66
2022/03/19 09:42:32;;;;;;;9.43;4.30;;;;;;;8.02;57.93;103024.97;5009613;28;20412;-65
2022/03/19 09:45:38;;;;;;;9.63;4.65;;;;;;;8.21;56.61;103012.75;5010071;28;20067;-65
2022/03/19 09:48:41;;;;;;;9.02;4.47;;;;;;;8.20;56.26;103015.34;4999341;28;20116;-65
2022/03/19 09:51:53;;;;;;;12.60;5.00;;;;;;;8.18;56.90;103012.75;5009132;28;20053;-66
2022/03/19 09:55:00;;;;;;;14.13;4.93;;;;;;;8.35;56.96;103000.53;4989575;28;20057;-65
2022/03/19 09:58:04;;;;;;;9.70;4.30;;;;;;;8.52;54.79;102992.72;4989464;28;20045;-65
2022/03/19 10:01:07;;;;;;;10.32;4.18;;;;;;;8.54;54.33;102995.28;4995133;28;20045;-65
2022/03/19 10:04:12;;;;;;;8.75;4.32;;;;;;;8.54;55.03;102983.13;5009181;28;20052;-65
2022/03/19 10:10:44;;;;;;;13.00;4.53;;;;;;;8.81;53.53;102983.88;4996366;28;20414;-65
2022/03/19 10:13:49;;;;;;;;;;;;;;;8.82;52.98;102983.00;5009286;28;20044;-65
2022/03/19 10:16:54;;;;;;;10.65;4.30;;;;;;;8.83;52.37;102982.97;5008096;28;19948;-65
2022/03/19 10:20:09;;;;;;;18.70;4.80;;;;;;;8.88;53.03;102971.66;5008539;28;20569;-65
2022/03/19 10:23:12;;;;;;;14.73;4.70;;;;;;;8.94;53.52;102969.88;5008420;28;20037;-65
2022/03/19 10:26:46;;;;;;;8.77;3.75;;;;;;;8.97;52.10;102967.25;5008213;28;20084;-65
2022/03/19 10:30:11;;;;;;;8.60;3.53;;;;;;;9.06;51.56;102956.75;5011291;28;20133;-65
2022/03/19 10:33:15;;;;;;;8.60;3.67;;;;;;;9.02;51.27;102946.31;5012910;28;20052;-65
2022/03/19 10:36:18;;;;;;;9.43;3.60;;;;;;;9.23;50.15;102937.47;5012112;28;20053;-65
2022/03/19 10:39:26;;;;;;;9.55;3.67;;;;;;;9.19;50.21;102944.47;5011110;28;20045;-65
2022/03/19 10:42:41;;;;;;;7.15;3.05;;;;;;;9.19;49.29;102935.75;5011432;28;20045;-65
2022/03/19 10:45:46;;;;;;;7.28;2.97;;;;;;;9.29;47.69;102932.22;5011323;28;20095;-65
2022/03/19 10:48:53;;;;;;;8.77;2.90;;;;;;;9.34;45.78;102927.78;5011103;28;20108;-65
2022/03/19 10:51:58;;;;;;;7.60;2.85;;;;;;;9.30;44.73;102921.75;5011052;28;20511;-65
2022/03/19 10:55:04;;;;;;;6.63;2.05;;;;;;;9.45;43.71;102910.31;5010392;28;20092;-65
2022/03/19 10:58:08;;;;;;;7.22;2.20;;;;;;;9.52;43.98;102898.91;5010782;28;20080;-65
2022/03/19 11:01:14;;;;;;;5.22;1.70;;;;;;;9.66;42.80;102890.06;5010513;28;20215;-65
2022/03/19 11:04:19;;;;;;;11.50;2.45;;;;;;;9.68;42.04;102877.84;5009957;28;20621;-65
2022/03/19 11:07:24;;;;;;;6.88;2.22;;;;;;;9.78;40.92;102876.88;5011475;28;20053;-65
2022/03/19 11:10:29;;;;;;;5.82;2.05;;;;;;;9.73;41.47;102878.66;5011171;28;20538;-65
2022/03/19 11:13:37;;;;;;;6.85;2.70;;;;;;;9.78;41.98;102876.88;5010601;28;20072;-65
2022/03/19 11:16:42;;;;;;;5.30;2.63;;;;;;;9.85;41.72;102867.19;5010686;28;20072;-65
2022/03/19 11:19:46;;;;;;;5.53;2.60;;;;;;;9.79;42.82;102865.53;5009933;28;20048;-65
2022/03/19 11:22:53;;;;;;;6.35;2.63;;;;;;;9.81;43.26;102852.44;5010810;28;20419;-66
2022/03/19 11:26:01;;;;;;;7.32;2.53;;;;;;;9.94;43.61;102846.19;5010684;28;20080;-65
2022/03/19 11:29:05;;;;;;;6.15;2.33;;;;;;;10.20;40.54;102843.22;5010603;28;20472;-65
2022/03/19 11:32:20;;;;;;;4.97;2.38;;;;;;;10.33;40.87;102842.19;5011108;28;20102;-67
2022/03/19 11:35:27;;;;;;;7.22;2.60;;;;;;;10.28;41.65;102833.56;5010436;28;20097;-65
2022/03/19 11:38:34;;;;;;;6.68;2.75;;;;;;;10.29;42.39;102827.44;5009898;28;20045;-66
2022/03/19 11:41:47;;;;;;;6.53;2.75;;;;;;;10.30;43.00;102817.84;4997724;28;20549;-65
2022/03/19 11:44:51;;;;;;;7.22;2.33;;;;;;;10.51;43.56;102822.78;5010100;28;20040;-65
2022/03/19 11:47:54;;;;;;;8.63;2.47;;;;;;;10.62;42.41;102810.38;5009743;28;20057;-66
2022/03/19 11:51:12;;;;;;;;;;;;;;;10.74;41.15;102804.09;5010769;28;20060;-66
2022/03/19 11:54:17;;;;;;;5.28;2.50;;;;;;;10.76;40.00;102791.00;5010103;28;19921;-65
2022/03/19 11:57:20;;;;;;;5.57;2.10;;;;;;;10.77;39.19;102774.38;5009702;28;20048;-66
2022/03/19 12:00:25;;;;;;;6.50;2.50;;;;;;;10.79;38.30;102773.47;5010236;28;20040;-66
2022/03/19 12:03:28;;;;;;;6.63;2.33;;;;;;;10.99;37.46;102765.25;5010523;28;20499;-65
2022/03/19 12:06:36;;;;;;;4.95;1.55;;;;;;;11.07;37.97;102763.38;5010955;28;20099;-65
2022/03/19 12:09:40;;;;;;;6.85;2.15;;;;;;;11.17;37.76;102750.97;5010016;28;20108;-65
2022/03/19 12:12:46;;;;;;;7.40;1.80;;;;;;;11.21;36.78;102752.63;5010132;28;20593;-65
2022/03/19 12:15:49;;;;;;;4.78;1.48;;;;;;;11.43;34.91;102726.03;5009737;28;20057;-65
2022/03/19 12:18:55;;;;;;;5.00;1.55;;;;;;;11.45;33.04;102730.31;5009212;28;20526;-65
2022/03/19 12:21:58;;;;;;;3.78;1.10;;;;;;;11.68;31.32;102724.59;5009326;28;20714;-65
2022/03/19 12:25:13;;;;;;;3.85;1.30;;;;;;;11.71;31.30;102702.69;5009247;28;20411;-66
2022/03/19 12:28:17;;;;;;;3.05;0.80;;;;;;;11.99;29.31;102708.19;4997444;28;20052;-66
2022/03/19 12:31:29;;;;;;;3.42;0.75;;;;;;;12.36;27.64;102712.56;5009197;28;20104;-65
2022/03/19 12:34:32;;;;;;;3.30;0.50;;;;;;;12.60;27.00;102693.56;5008169;28;20610;-66
2022/03/19 12:37:50;;;;;;;2.92;0.75;;;;;;;12.75;26.92;102698.41;5008340;28;20129;-65
2022/03/19 12:44:18;;;;;;;3.45;0.90;;;;;;;12.97;26.70;102672.44;5009063;28;20053;-65
2022/03/19 12:47:22;;;;;;;3.20;0.82;;;;;;;13.34;26.30;102670.56;5008666;28;20103;-65
2022/03/19 12:50:25;;;;;;;3.45;1.33;;;;;;;13.75;25.26;102671.03;5007135;28;20044;-65
2022/03/19 12:53:40;;;;;;;3.25;1.10;;;;;;;13.79;27.15;102660.41;5007237;28;20539;-66
2022/03/19 12:56:43;;;;;;;4.68;0.88;;;;;;;14.46;27.25;102659.94;5007854;28;20211;-66
2022/03/19 12:59:49;;;;;;;5.28;2.33;;;;;;;14.88;27.14;102651.47;5006948;28;20100;-66
2022/03/19 13:02:54;;;;;;;3.42;0.82;;;;;;;14.80;24.27;102642.97;5007201;28;20057;-66
2022/03/19 13:05:58;;;;;;;5.15;1.17;;;;;;;14.75;25.08;102639.66;5008753;28;20084;-66
2022/03/19 13:09:01;;;;;;;5.43;1.25;;;;;;;15.05;25.40;102635.88;5008793;28;20181;-66
2022/03/19 13:12:07;;;;;;;2.72;0.93;;;;;;;15.37;25.54;102633.78;5008240;28;20049;-65
2022/03/19 13:15:17;;;;;;;4.75;1.25;;;;;;;15.61;25.18;102615.31;5008969;28;20628;-66
2022/03/19 13:18:31;;;;;;;4.47;1.60;;;;;;;16.28;25.15;102615.16;5009273;28;20048;-63
2022/03/19 13:21:37;;;;;;;4.68;1.48;;;;;;;17.70;22.71;102613.03;5008446;28;20081;-66
2022/03/19 13:24:41;;;;;;;5.22;1.40;;;;;;;18.99;21.60;102603.78;5009063;28;20044;-66
2022/03/19 13:27:51;;;;;;;5.78;1.50;;;;;;;19.82;19.00;102593.81;5009029;28;20522;-66
2022/03/19 13:30:57;;;;;;;3.35;1.27;;;;;;;22.15;16.93;102590.56;5008097;28;20064;-65
2022/03/19 13:34:04;;;;;;;3.83;1.30;;;;;;;24.47;14.26;102579.75;5008786;28;20611;-65
2022/03/19 13:37:09;;;;;;;3.40;1.30;;;;;;;24.88;13.72;102559.53;5007805;28;20092;-65
2022/03/19 13:40:19;;;;;;;4.18;1.30;;;;;;;24.48;13.66;102564.59;5008377;28;20103;-65
2022/03/19 13:43:39;;;;;;;5.22;1.65;;;;;;;24.41;12.94;102552.63;5007959;28;20096;-65
2022/03/19 13:47:02;;;;;;;3.08;1.27;;;;;;;25.97;12.39;102551.38;5008877;28;20045;-65
2022/03/19 13:50:11;;;;;;;3.28;1.25;;;;;;;26.75;12.32;102535.66;5005852;28;20065;-65
2022/03/19 13:53:14;;;;;;;3.00;1.20;;;;;;;26.80;12.32;102537.91;5007416;28;20122;-65
2022/03/19 13:56:18;;;;;;;2.70;1.10;;;;;;;26.85;11.53;102524.94;5011140;28;20088;-65
2022/03/19 13:59:31;;;;;;;3.53;1.40;;;;;;;27.33;11.97;102525.00;5010106;28;20056;-65
2022/03/19 14:02:36;;;;;;;3.17;1.45;;;;;;;28.18;11.56;102517.09;5012202;28;20048;-65
2022/03/19 14:05:41;;;;;;;3.58;1.60;;;;;;;28.60;10.97;102528.22;5015450;28;20052;-65
2022/03/19 14:08:47;;;;;;;5.05;1.80;;;;;;;25.72;12.82;102514.25;5015122;28;20088;-65
2022/03/19 14:11:50;;;;;;;5.20;1.67;;;;;;;25.00;13.01;102514.88;5015387;28;20041;-65
2022/03/19 14:14:58;;;;;;;3.28;1.20;;;;;;;27.25;11.85;102510.56;5015742;28;20081;-65
2022/03/19 14:18:03;;;;;;;4.90;1.67;;;;;;;28.02;11.27;102497.03;5015506;28;20053;-65
2022/03/19 14:21:10;;;;;;;5.07;0.93;;;;;;;22.92;14.36;102518.50;5015557;28;20054;-65
2022/03/19 14:24:13;;;;;;;3.50;1.25;;;;;;;26.20;11.48;102511.84;5015658;28;20108;-65
2022/03/19 14:27:17;;;;;;;3.03;1.30;;;;;;;22.73;14.27;102521.66;5015346;28;20128;-65
2022/03/19 14:30:20;;;;;;;3.42;1.63;;;;;;;24.41;13.15;102512.50;5015239;28;20064;-65
2022/03/19 14:33:24;;;;;;;5.72;1.30;;;;;;;27.23;10.84;102488.41;5014882;28;20104;-65
2022/03/19 14:36:27;;;;;;;5.03;1.65;;;;;;;28.31;10.27;102501.44;5015058;28;20068;-65
2022/03/19 14:39:31;;;;;;;4.22;1.40;;;;;;;26.90;11.16;102502.06;5015392;28;20104;-65
2022/03/19 14:42:34;;;;;;;6.18;1.70;;;;;;;25.24;12.06;102495.97;5014839;28;20045;-65
2022/03/19 14:45:37;;;;;;;5.25;2.10;;;;;;;27.64;10.78;102494.44;5015293;28;20088;-65